sensor_id;sensor_type;location;lat;lon;timestamp;P1;durP1;ratioP1;P2;durP2;ratioP2
44824;SDS011;30542;47.928;2.138;2022-07-22T00:04:32;5.65;;;5.22;;
44824;SDS011;30542;47.928;2.138;2022-07-22T00:09:33;5.93;;;5.53;;
44824;SDS011;30542;47.928;2.138;2022-07-22T00:14:33;5.38;;;4.95;;
44824;SDS011;30542;47.928;2.138;2022-07-22T00:19:34;6.18;;;5.68;;
44824;SDS011;30542;47.928;2.138;2022-07-22T00:24:35;6.50;;;5.95;;
44824;SDS011;30542;47.928;2.138;2022-07-22T00:29:35;6.73;;;5.43;;
44824;SDS011;30542;47.928;2.138;2022-07-22T00:34:35;6.00;;;5.60;;
44824;SDS011;30542;47.928;2.138;2022-07-22T00:39:36;6.73;;;5.87;;
44824;SDS011;30542;47.928;2.138;2022-07-22T00:44:37;6.07;;;5.57;;
44824;SDS011;30542;47.928;2.138;2022-07-22T00:49:37;5.77;;;5.27;;
44824;SDS011;30542;47.928;2.138;2022-07-22T00:54:38;6.40;;;5.93;;
44824;SDS011;30542;47.928;2.138;2022-07-22T00:59:39;5.78;;;5.25;;
44824;SDS011;30542;47.928;2.138;2022-07-22T01:04:39;6.20;;;5.70;;
44824;SDS011;30542;47.928;2.138;2022-07-22T01:09:44;6.38;;;5.88;;
44824;SDS011;30542;47.928;2.138;2022-07-22T01:14:45;6.43;;;5.82;;
44824;SDS011;30542;47.928;2.138;2022-07-22T01:19:45;6.47;;;5.97;;
44824;SDS011;30542;47.928;2.138;2022-07-22T01:24:46;6.07;;;5.57;;
44824;SDS011;30542;47.928;2.138;2022-07-22T01:29:46;5.85;;;5.35;;
44824;SDS011;30542;47.928;2.138;2022-07-22T01:34:47;5.80;;;5.40;;
44824;SDS011;30542;47.928;2.138;2022-07-22T01:39:47;5.97;;;5.47;;
44824;SDS011;30542;47.928;2.138;2022-07-22T01:44:48;6.18;;;5.45;;
44824;SDS011;30542;47.928;2.138;2022-07-22T01:49:48;6.33;;;5.63;;
44824;SDS011;30542;47.928;2.138;2022-07-22T01:54:49;6.53;;;5.97;;
44824;SDS011;30542;47.928;2.138;2022-07-22T01:59:49;7.10;;;6.50;;
44824;SDS011;30542;47.928;2.138;2022-07-22T02:04:50;6.23;;;5.73;;
44824;SDS011;30542;47.928;2.138;2022-07-22T02:09:52;7.13;;;6.43;;
44824;SDS011;30542;47.928;2.138;2022-07-22T02:14:53;7.97;;;7.20;;
44824;SDS011;30542;47.928;2.138;2022-07-22T02:19:54;7.50;;;6.80;;
44824;SDS011;30542;47.928;2.138;2022-07-22T02:24:55;7.20;;;6.50;;
44824;SDS011;30542;47.928;2.138;2022-07-22T02:29:55;6.72;;;6.13;;
44824;SDS011;30542;47.928;2.138;2022-07-22T02:34:56;7.13;;;6.63;;
44824;SDS011;30542;47.928;2.138;2022-07-22T02:39:57;7.22;;;6.68;;
44824;SDS011;30542;47.928;2.138;2022-07-22T02:44:57;7.53;;;6.83;;
44824;SDS011;30542;47.928;2.138;2022-07-22T02:49:58;7.43;;;6.83;;
44824;SDS011;30542;47.928;2.138;2022-07-22T02:54:58;7.80;;;7.10;;
44824;SDS011;30542;47.928;2.138;2022-07-22T02:59:58;7.53;;;6.83;;
44824;SDS011;30542;47.928;2.138;2022-07-22T03:04:59;7.10;;;6.50;;
44824;SDS011;30542;47.928;2.138;2022-07-22T03:09:59;7.27;;;6.77;;
44824;SDS011;30542;47.928;2.138;2022-07-22T03:14:59;7.90;;;7.20;;
44824;SDS011;30542;47.928;2.138;2022-07-22T03:20:06;7.93;;;7.30;;
44824;SDS011;30542;47.928;2.138;2022-07-22T03:25:09;7.40;;;6.80;;
44824;SDS011;30542;47.928;2.138;2022-07-22T03:30:09;7.73;;;7.13;;
44824;SDS011;30542;47.928;2.138;2022-07-22T03:35:11;8.35;;;7.75;;
44824;SDS011;30542;47.928;2.138;2022-07-22T03:40:12;8.00;;;7.40;;
44824;SDS011;30542;47.928;2.138;2022-07-22T03:45:12;8.53;;;7.50;;
44824;SDS011;30542;47.928;2.138;2022-07-22T03:50:13;8.43;;;7.72;;
44824;SDS011;30542;47.928;2.138;2022-07-22T03:55:13;8.47;;;7.67;;
44824;SDS011;30542;47.928;2.138;2022-07-22T04:00:14;8.97;;;8.17;;
44824;SDS011;30542;47.928;2.138;2022-07-22T04:05:14;8.13;;;7.43;;
44824;SDS011;30542;47.928;2.138;2022-07-22T04:10:15;8.50;;;7.80;;
44824;SDS011;30542;47.928;2.138;2022-07-22T04:15:15;7.50;;;6.90;;
44824;SDS011;30542;47.928;2.138;2022-07-22T04:20:15;8.87;;;8.10;;
44824;SDS011;30542;47.928;2.138;2022-07-22T04:25:17;8.95;;;8.05;;
44824;SDS011;30542;47.928;2.138;2022-07-22T04:30:17;8.03;;;7.33;;
44824;SDS011;30542;47.928;2.138;2022-07-22T04:35:18;8.35;;;7.65;;
44824;SDS011;30542;47.928;2.138;2022-07-22T04:40:19;8.63;;;7.93;;
44824;SDS011;30542;47.928;2.138;2022-07-22T04:45:19;8.47;;;7.80;;
44824;SDS011;30542;47.928;2.138;2022-07-22T04:50:20;8.40;;;7.70;;
44824;SDS011;30542;47.928;2.138;2022-07-22T04:55:20;9.73;;;8.80;;
44824;SDS011;30542;47.928;2.138;2022-07-22T05:00:21;8.82;;;8.02;;
44824;SDS011;30542;47.928;2.138;2022-07-22T05:05:22;8.75;;;7.95;;
44824;SDS011;30542;47.928;2.138;2022-07-22T05:10:23;9.05;;;8.15;;
44824;SDS011;30542;47.928;2.138;2022-07-22T05:15:23;9.30;;;8.53;;
44824;SDS011;30542;47.928;2.138;2022-07-22T05:20:24;9.15;;;8.35;;
44824;SDS011;30542;47.928;2.138;2022-07-22T05:25:25;9.55;;;8.75;;
44824;SDS011;30542;47.928;2.138;2022-07-22T05:30:25;9.10;;;8.40;;
44824;SDS011;30542;47.928;2.138;2022-07-22T05:35:25;9.55;;;8.60;;
44824;SDS011;30542;47.928;2.138;2022-07-22T05:40:26;9.07;;;8.27;;
44824;SDS011;30542;47.928;2.138;2022-07-22T05:45:26;9.32;;;8.55;;
44824;SDS011;30542;47.928;2.138;2022-07-22T05:50:27;9.80;;;9.07;;
44824;SDS011;30542;47.928;2.138;2022-07-22T05:55:28;8.65;;;7.95;;
44824;SDS011;30542;47.928;2.138;2022-07-22T06:00:28;9.50;;;8.63;;
44824;SDS011;30542;47.928;2.138;2022-07-22T06:05:28;9.97;;;8.80;;
44824;SDS011;30542;47.928;2.138;2022-07-22T06:10:29;10.57;;;9.47;;
44824;SDS011;30542;47.928;2.138;2022-07-22T06:15:29;16.17;;;10.00;;
44824;SDS011;30542;47.928;2.138;2022-07-22T06:20:30;12.67;;;10.10;;
44824;SDS011;30542;47.928;2.138;2022-07-22T06:25:30;12.65;;;11.30;;
44824;SDS011;30542;47.928;2.138;2022-07-22T06:30:31;13.25;;;10.85;;
44824;SDS011;30542;47.928;2.138;2022-07-22T06:35:31;17.40;;;11.83;;
44824;SDS011;30542;47.928;2.138;2022-07-22T06:40:32;13.90;;;11.23;;
44824;SDS011;30542;47.928;2.138;2022-07-22T06:45:33;11.95;;;10.75;;
44824;SDS011;30542;47.928;2.138;2022-07-22T06:50:33;11.33;;;10.20;;
44824;SDS011;30542;47.928;2.138;2022-07-22T06:55:34;12.30;;;10.80;;
44824;SDS011;30542;47.928;2.138;2022-07-22T07:00:34;12.25;;;10.25;;
44824;SDS011;30542;47.928;2.138;2022-07-22T07:05:34;11.67;;;10.47;;
44824;SDS011;30542;47.928;2.138;2022-07-22T07:10:35;11.50;;;10.30;;
44824;SDS011;30542;47.928;2.138;2022-07-22T07:15:35;11.03;;;10.07;;
44824;SDS011;30542;47.928;2.138;2022-07-22T07:20:36;10.65;;;9.63;;
44824;SDS011;30542;47.928;2.138;2022-07-22T07:25:36;11.23;;;10.33;;
44824;SDS011;30542;47.928;2.138;2022-07-22T07:30:37;10.80;;;9.77;;
44824;SDS011;30542;47.928;2.138;2022-07-22T07:35:37;9.80;;;8.90;;
44824;SDS011;30542;47.928;2.138;2022-07-22T07:40:37;11.10;;;10.10;;
44824;SDS011;30542;47.928;2.138;2022-07-22T07:45:38;10.37;;;9.47;;
44824;SDS011;30542;47.928;2.138;2022-07-22T07:50:39;10.32;;;9.52;;
44824;SDS011;30542;47.928;2.138;2022-07-22T07:55:39;9.50;;;8.80;;
44824;SDS011;30542;47.928;2.138;2022-07-22T08:00:40;9.00;;;8.30;;
44824;SDS011;30542;47.928;2.138;2022-07-22T08:05:42;9.05;;;8.35;;
44824;SDS011;30542;47.928;2.138;2022-07-22T08:10:43;10.13;;;9.07;;
44824;SDS011;30542;47.928;2.138;2022-07-22T08:15:44;9.25;;;8.35;;
44824;SDS011;30542;47.928;2.138;2022-07-22T08:20:44;9.87;;;8.63;;
44824;SDS011;30542;47.928;2.138;2022-07-22T08:25:44;10.87;;;9.87;;
44824;SDS011;30542;47.928;2.138;2022-07-22T08:30:45;8.90;;;8.20;;
44824;SDS011;30542;47.928;2.138;2022-07-22T08:35:45;9.50;;;8.70;;
44824;SDS011;30542;47.928;2.138;2022-07-22T08:40:46;9.30;;;8.30;;
44824;SDS011;30542;47.928;2.138;2022-07-22T08:45:48;9.13;;;8.30;;
44824;SDS011;30542;47.928;2.138;2022-07-22T08:50:49;9.50;;;8.80;;
44824;SDS011;30542;47.928;2.138;2022-07-22T08:55:49;9.70;;;8.90;;
44824;SDS011;30542;47.928;2.138;2022-07-22T09:01:03;9.70;;;8.90;;
44824;SDS011;30542;47.928;2.138;2022-07-22T09:06:07;9.45;;;8.75;;
44824;SDS011;30542;47.928;2.138;2022-07-22T09:11:17;10.13;;;9.23;;
44824;SDS011;30542;47.928;2.138;2022-07-22T09:16:37;9.40;;;8.65;;
44824;SDS011;30542;47.928;2.138;2022-07-22T09:21:45;9.60;;;8.80;;
44824;SDS011;30542;47.928;2.138;2022-07-22T09:26:49;9.82;;;8.95;;
44824;SDS011;30542;47.928;2.138;2022-07-22T09:31:53;9.43;;;8.63;;
44824;SDS011;30542;47.928;2.138;2022-07-22T09:36:54;9.40;;;8.67;;
44824;SDS011;30542;47.928;2.138;2022-07-22T09:41:59;9.38;;;8.65;;
44824;SDS011;30542;47.928;2.138;2022-07-22T09:47:05;9.88;;;9.00;;
44824;SDS011;30542;47.928;2.138;2022-07-22T09:52:06;9.68;;;8.88;;
44824;SDS011;30542;47.928;2.138;2022-07-22T09:57:06;9.27;;;8.52;;
44824;SDS011;30542;47.928;2.138;2022-07-22T10:02:07;9.60;;;8.77;;
44824;SDS011;30542;47.928;2.138;2022-07-22T10:07:09;9.07;;;8.27;;
44824;SDS011;30542;47.928;2.138;2022-07-22T10:12:10;9.43;;;8.63;;
44824;SDS011;30542;47.928;2.138;2022-07-22T10:17:12;10.30;;;9.50;;
44824;SDS011;30542;47.928;2.138;2022-07-22T10:27:59;10.45;;;9.45;;
44824;SDS011;30542;47.928;2.138;2022-07-22T10:33:09;9.85;;;9.15;;
44824;SDS011;30542;47.928;2.138;2022-07-22T10:38:12;10.60;;;9.60;;
44824;SDS011;30542;47.928;2.138;2022-07-22T10:43:20;9.32;;;8.57;;
44824;SDS011;30542;47.928;2.138;2022-07-22T10:48:22;9.60;;;8.60;;
44824;SDS011;30542;47.928;2.138;2022-07-22T10:53:38;9.85;;;8.95;;
44824;SDS011;30542;47.928;2.138;2022-07-22T10:58:43;9.40;;;8.55;;
44824;SDS011;30542;47.928;2.138;2022-07-22T11:03:51;9.93;;;9.18;;
44824;SDS011;30542;47.928;2.138;2022-07-22T11:08:56;9.10;;;8.43;;
44824;SDS011;30542;47.928;2.138;2022-07-22T11:14:01;9.98;;;9.20;;
44824;SDS011;30542;47.928;2.138;2022-07-22T11:19:02;9.40;;;8.60;;
44824;SDS011;30542;47.928;2.138;2022-07-22T11:24:03;9.77;;;8.98;;
44824;SDS011;30542;47.928;2.138;2022-07-22T11:29:05;9.38;;;8.57;;
44824;SDS011;30542;47.928;2.138;2022-07-22T11:34:11;10.68;;;9.77;;
44824;SDS011;30542;47.928;2.138;2022-07-22T11:39:14;10.77;;;9.88;;
44824;SDS011;30542;47.928;2.138;2022-07-22T11:44:19;11.05;;;10.10;;
44824;SDS011;30542;47.928;2.138;2022-07-22T11:49:21;11.38;;;10.38;;
44824;SDS011;30542;47.928;2.138;2022-07-22T11:54:21;11.02;;;10.02;;
44824;SDS011;30542;47.928;2.138;2022-07-22T11:59:22;10.35;;;9.55;;
44824;SDS011;30542;47.928;2.138;2022-07-22T12:04:23;10.20;;;9.40;;
44824;SDS011;30542;47.928;2.138;2022-07-22T12:09:26;9.43;;;8.63;;
44824;SDS011;30542;47.928;2.138;2022-07-22T12:14:31;9.30;;;8.50;;
44824;SDS011;30542;47.928;2.138;2022-07-22T12:19:33;10.25;;;9.40;;
44824;SDS011;30542;47.928;2.138;2022-07-22T12:24:38;10.90;;;9.38;;
44824;SDS011;30542;47.928;2.138;2022-07-22T12:34:43;10.43;;;9.60;;
44824;SDS011;30542;47.928;2.138;2022-07-22T12:40:10;11.10;;;10.10;;
44824;SDS011;30542;47.928;2.138;2022-07-22T12:45:18;10.07;;;9.27;;
44824;SDS011;30542;47.928;2.138;2022-07-22T12:50:28;10.05;;;9.25;;
44824;SDS011;30542;47.928;2.138;2022-07-22T12:55:30;10.15;;;9.35;;
44824;SDS011;30542;47.928;2.138;2022-07-22T13:00:33;10.32;;;9.43;;
44824;SDS011;30542;47.928;2.138;2022-07-22T13:05:35;10.32;;;9.43;;
44824;SDS011;30542;47.928;2.138;2022-07-22T13:10:36;9.73;;;9.00;;
44824;SDS011;30542;47.928;2.138;2022-07-22T13:15:36;9.80;;;8.80;;
44824;SDS011;30542;47.928;2.138;2022-07-22T13:20:37;9.82;;;8.93;;
44824;SDS011;30542;47.928;2.138;2022-07-22T13:25:37;9.67;;;8.87;;
44824;SDS011;30542;47.928;2.138;2022-07-22T13:30:38;10.30;;;9.40;;
44824;SDS011;30542;47.928;2.138;2022-07-22T13:35:38;9.50;;;8.80;;
44824;SDS011;30542;47.928;2.138;2022-07-22T13:40:39;9.63;;;8.93;;
44824;SDS011;30542;47.928;2.138;2022-07-22T13:45:39;9.77;;;8.97;;
44824;SDS011;30542;47.928;2.138;2022-07-22T13:50:39;9.10;;;8.47;;
44824;SDS011;30542;47.928;2.138;2022-07-22T13:55:40;10.68;;;9.85;;
44824;SDS011;30542;47.928;2.138;2022-07-22T14:00:41;9.80;;;9.10;;
44824;SDS011;30542;47.928;2.138;2022-07-22T14:05:42;10.10;;;9.20;;
44824;SDS011;30542;47.928;2.138;2022-07-22T14:10:44;9.43;;;8.63;;
44824;SDS011;30542;47.928;2.138;2022-07-22T14:15:44;9.90;;;9.05;;
44824;SDS011;30542;47.928;2.138;2022-07-22T14:20:45;9.80;;;9.00;;
44824;SDS011;30542;47.928;2.138;2022-07-22T14:25:46;9.80;;;9.00;;
44824;SDS011;30542;47.928;2.138;2022-07-22T14:30:46;10.10;;;9.30;;
44824;SDS011;30542;47.928;2.138;2022-07-22T14:35:46;10.50;;;9.67;;
44824;SDS011;30542;47.928;2.138;2022-07-22T14:40:47;11.77;;;10.67;;
44824;SDS011;30542;47.928;2.138;2022-07-22T14:45:47;12.37;;;11.20;;
44824;SDS011;30542;47.928;2.138;2022-07-22T14:50:47;11.70;;;10.80;;
44824;SDS011;30542;47.928;2.138;2022-07-22T14:55:48;11.13;;;10.33;;
44824;SDS011;30542;47.928;2.138;2022-07-22T15:00:48;11.33;;;10.43;;
44824;SDS011;30542;47.928;2.138;2022-07-22T15:05:49;11.07;;;10.18;;
44824;SDS011;30542;47.928;2.138;2022-07-22T15:10:49;11.27;;;10.38;;
44824;SDS011;30542;47.928;2.138;2022-07-22T15:15:50;11.10;;;10.10;;
44824;SDS011;30542;47.928;2.138;2022-07-22T15:20:50;10.67;;;9.87;;
44824;SDS011;30542;47.928;2.138;2022-07-22T15:25:54;10.95;;;10.00;;
44824;SDS011;30542;47.928;2.138;2022-07-22T15:30:57;10.80;;;9.90;;
44824;SDS011;30542;47.928;2.138;2022-07-22T15:35:59;9.65;;;8.82;;
44824;SDS011;30542;47.928;2.138;2022-07-22T15:40:59;9.88;;;9.07;;
44824;SDS011;30542;47.928;2.138;2022-07-22T15:45:59;9.33;;;8.63;;
44824;SDS011;30542;47.928;2.138;2022-07-22T15:51:01;10.45;;;9.55;;
44824;SDS011;30542;47.928;2.138;2022-07-22T15:56:02;9.82;;;8.98;;
44824;SDS011;30542;47.928;2.138;2022-07-22T16:01:02;10.55;;;9.75;;
44824;SDS011;30542;47.928;2.138;2022-07-22T16:06:03;10.98;;;9.98;;
44824;SDS011;30542;47.928;2.138;2022-07-22T16:11:04;9.30;;;8.50;;
44824;SDS011;30542;47.928;2.138;2022-07-22T16:16:05;9.63;;;8.83;;
44824;SDS011;30542;47.928;2.138;2022-07-22T16:21:06;9.63;;;8.82;;
44824;SDS011;30542;47.928;2.138;2022-07-22T16:26:06;9.43;;;8.73;;
44824;SDS011;30542;47.928;2.138;2022-07-22T16:31:07;9.47;;;8.63;;
44824;SDS011;30542;47.928;2.138;2022-07-22T16:36:07;9.43;;;8.50;;
44824;SDS011;30542;47.928;2.138;2022-07-22T16:41:08;9.63;;;8.65;;
44824;SDS011;30542;47.928;2.138;2022-07-22T16:46:08;9.35;;;8.55;;
44824;SDS011;30542;47.928;2.138;2022-07-22T16:51:09;8.95;;;8.25;;
44824;SDS011;30542;47.928;2.138;2022-07-22T16:56:09;9.40;;;8.70;;
44824;SDS011;30542;47.928;2.138;2022-07-22T17:01:10;9.30;;;8.50;;
44824;SDS011;30542;47.928;2.138;2022-07-22T17:06:10;9.10;;;8.35;;
44824;SDS011;30542;47.928;2.138;2022-07-22T17:11:11;9.10;;;8.30;;
44824;SDS011;30542;47.928;2.138;2022-07-22T17:16:11;9.40;;;8.50;;
44824;SDS011;30542;47.928;2.138;2022-07-22T17:21:12;8.85;;;8.18;;
44824;SDS011;30542;47.928;2.138;2022-07-22T17:26:14;8.65;;;7.95;;
44824;SDS011;30542;47.928;2.138;2022-07-22T17:31:14;9.10;;;8.30;;
44824;SDS011;30542;47.928;2.138;2022-07-22T17:36:15;8.82;;;8.02;;
44824;SDS011;30542;47.928;2.138;2022-07-22T17:41:16;10.25;;;8.70;;
44824;SDS011;30542;47.928;2.138;2022-07-22T17:46:17;13.63;;;9.60;;
44824;SDS011;30542;47.928;2.138;2022-07-22T17:51:18;16.02;;;10.43;;
44824;SDS011;30542;47.928;2.138;2022-07-22T17:56:18;18.80;;;10.77;;
44824;SDS011;30542;47.928;2.138;2022-07-22T18:01:18;15.88;;;10.18;;
44824;SDS011;30542;47.928;2.138;2022-07-22T18:06:19;14.50;;;10.40;;
44824;SDS011;30542;47.928;2.138;2022-07-22T18:11:19;13.13;;;9.73;;
44824;SDS011;30542;47.928;2.138;2022-07-22T18:16:20;13.97;;;9.77;;
44824;SDS011;30542;47.928;2.138;2022-07-22T18:21:20;15.90;;;10.30;;
44824;SDS011;30542;47.928;2.138;2022-07-22T18:26:20;12.80;;;9.70;;
44824;SDS011;30542;47.928;2.138;2022-07-22T18:31:21;11.00;;;9.50;;
44824;SDS011;30542;47.928;2.138;2022-07-22T18:36:21;10.63;;;9.50;;
44824;SDS011;30542;47.928;2.138;2022-07-22T18:41:22;12.43;;;10.17;;
44824;SDS011;30542;47.928;2.138;2022-07-22T18:46:22;11.00;;;10.07;;
44824;SDS011;30542;47.928;2.138;2022-07-22T18:51:22;10.67;;;9.57;;
44824;SDS011;30542;47.928;2.138;2022-07-22T18:56:23;10.43;;;9.43;;
44824;SDS011;30542;47.928;2.138;2022-07-22T19:01:23;11.07;;;9.67;;
44824;SDS011;30542;47.928;2.138;2022-07-22T19:06:23;11.33;;;10.13;;
44824;SDS011;30542;47.928;2.138;2022-07-22T19:11:24;10.80;;;9.88;;
44824;SDS011;30542;47.928;2.138;2022-07-22T19:16:24;10.43;;;9.43;;
44824;SDS011;30542;47.928;2.138;2022-07-22T19:21:25;10.70;;;9.80;;
44824;SDS011;30542;47.928;2.138;2022-07-22T19:26:27;10.25;;;9.18;;
44824;SDS011;30542;47.928;2.138;2022-07-22T19:31:27;10.37;;;9.27;;
44824;SDS011;30542;47.928;2.138;2022-07-22T19:36:28;10.80;;;9.80;;
44824;SDS011;30542;47.928;2.138;2022-07-22T19:41:29;10.02;;;9.05;;
44824;SDS011;30542;47.928;2.138;2022-07-22T19:46:29;9.50;;;8.70;;
44824;SDS011;30542;47.928;2.138;2022-07-22T19:51:30;9.70;;;8.70;;
44824;SDS011;30542;47.928;2.138;2022-07-22T19:56:30;9.53;;;8.73;;
44824;SDS011;30542;47.928;2.138;2022-07-22T20:01:30;9.37;;;8.47;;
44824;SDS011;30542;47.928;2.138;2022-07-22T20:06:31;8.82;;;8.07;;
44824;SDS011;30542;47.928;2.138;2022-07-22T20:11:31;8.55;;;7.85;;
44824;SDS011;30542;47.928;2.138;2022-07-22T20:16:33;8.63;;;7.88;;
44824;SDS011;30542;47.928;2.138;2022-07-22T20:21:34;8.85;;;8.02;;
44824;SDS011;30542;47.928;2.138;2022-07-22T20:26:34;8.10;;;7.07;;
44824;SDS011;30542;47.928;2.138;2022-07-22T20:31:35;8.40;;;7.70;;
44824;SDS011;30542;47.928;2.138;2022-07-22T20:36:38;8.13;;;7.40;;
44824;SDS011;30542;47.928;2.138;2022-07-22T20:41:38;8.53;;;7.67;;
44824;SDS011;30542;47.928;2.138;2022-07-22T20:46:39;8.40;;;7.57;;
44824;SDS011;30542;47.928;2.138;2022-07-22T20:51:39;7.90;;;6.75;;
44824;SDS011;30542;47.928;2.138;2022-07-22T20:56:40;7.80;;;7.20;;
44824;SDS011;30542;47.928;2.138;2022-07-22T21:01:40;7.63;;;7.07;;
44824;SDS011;30542;47.928;2.138;2022-07-22T21:06:41;8.27;;;7.57;;
44824;SDS011;30542;47.928;2.138;2022-07-22T21:11:41;7.37;;;6.70;;
44824;SDS011;30542;47.928;2.138;2022-07-22T21:16:42;8.48;;;7.68;;
44824;SDS011;30542;47.928;2.138;2022-07-22T21:21:43;7.57;;;6.88;;
44824;SDS011;30542;47.928;2.138;2022-07-22T21:26:43;7.70;;;7.00;;
44824;SDS011;30542;47.928;2.138;2022-07-22T21:31:44;7.93;;;7.30;;
44824;SDS011;30542;47.928;2.138;2022-07-22T21:36:44;7.28;;;6.70;;
44824;SDS011;30542;47.928;2.138;2022-07-22T21:41:45;7.10;;;6.57;;
44824;SDS011;30542;47.928;2.138;2022-07-22T21:46:45;7.97;;;6.70;;
44824;SDS011;30542;47.928;2.138;2022-07-22T21:51:45;7.17;;;6.67;;
44824;SDS011;30542;47.928;2.138;2022-07-22T21:56:46;7.80;;;7.13;;
44824;SDS011;30542;47.928;2.138;2022-07-22T22:01:59;7.47;;;6.72;;
44824;SDS011;30542;47.928;2.138;2022-07-22T22:07:00;7.57;;;6.88;;
44824;SDS011;30542;47.928;2.138;2022-07-22T22:12:00;7.97;;;7.27;;
44824;SDS011;30542;47.928;2.138;2022-07-22T22:17:01;6.50;;;6.10;;
44824;SDS011;30542;47.928;2.138;2022-07-22T22:22:05;7.47;;;6.95;;
44824;SDS011;30542;47.928;2.138;2022-07-22T22:27:05;7.25;;;6.65;;
44824;SDS011;30542;47.928;2.138;2022-07-22T22:32:06;7.18;;;6.47;;
44824;SDS011;30542;47.928;2.138;2022-07-22T22:37:07;7.38;;;6.72;;
44824;SDS011;30542;47.928;2.138;2022-07-22T22:42:07;7.03;;;6.43;;
44824;SDS011;30542;47.928;2.138;2022-07-22T22:47:08;7.27;;;6.67;;
44824;SDS011;30542;47.928;2.138;2022-07-22T22:52:08;8.07;;;7.27;;
44824;SDS011;30542;47.928;2.138;2022-07-22T22:57:08;7.10;;;6.50;;
44824;SDS011;30542;47.928;2.138;2022-07-22T23:02:09;7.13;;;6.60;;
44824;SDS011;30542;47.928;2.138;2022-07-22T23:07:10;7.32;;;6.72;;
44824;SDS011;30542;47.928;2.138;2022-07-22T23:12:10;7.33;;;6.73;;
44824;SDS011;30542;47.928;2.138;2022-07-22T23:17:10;7.57;;;6.97;;
44824;SDS011;30542;47.928;2.138;2022-07-22T23:22:11;7.90;;;7.27;;
44824;SDS011;30542;47.928;2.138;2022-07-22T23:27:11;8.37;;;7.63;;
44824;SDS011;30542;47.928;2.138;2022-07-22T23:32:11;8.67;;;7.93;;
44824;SDS011;30542;47.928;2.138;2022-07-22T23:37:12;8.18;;;7.57;;
44824;SDS011;30542;47.928;2.138;2022-07-22T23:42:12;8.43;;;7.63;;
44824;SDS011;30542;47.928;2.138;2022-07-22T23:47:13;9.00;;;8.23;;
44824;SDS011;30542;47.928;2.138;2022-07-22T23:52:13;8.67;;;7.97;;
44824;SDS011;30542;47.928;2.138;2022-07-22T23:57:14;8.23;;;7.63;;
